createdAt,value
2023-05-10T00:00:16.405Z,6.80
2023-05-10T00:04:28.350Z,6.40
2023-05-10T00:08:31.068Z,6.70
2023-05-10T00:12:33.720Z,6.87
2023-05-10T00:16:36.494Z,6.80
2023-05-10T00:20:40.565Z,6.73
2023-05-10T00:24:43.238Z,6.63
2023-05-10T00:28:45.883Z,6.27
2023-05-10T00:32:49.128Z,6.63
2023-05-10T00:36:53.486Z,6.33
2023-05-10T00:40:56.329Z,5.80
2023-05-10T00:44:59.023Z,5.87
2023-05-10T00:49:02.030Z,5.40
2023-05-10T00:53:06.712Z,5.47
2023-05-10T00:57:09.638Z,5.43
2023-05-10T01:01:12.784Z,5.50
2023-05-10T01:05:16.045Z,6.13
2023-05-10T01:09:20.443Z,5.33
2023-05-10T01:13:35.282Z,5.70
2023-05-10T01:17:38.706Z,5.27
2023-05-10T01:21:46.561Z,5.30
2023-05-10T01:26:18.460Z,5.57
2023-05-10T01:30:50.099Z,6.03
2023-05-10T01:35:00.004Z,5.30
2023-05-10T01:39:05.947Z,4.43
2023-05-10T01:43:13.461Z,4.80
2023-05-10T01:47:18.205Z,5.00
2023-05-10T01:51:26.200Z,4.80
2023-05-10T01:55:31.424Z,4.63
2023-05-10T01:59:40.080Z,5.27
2023-05-10T02:03:44.252Z,5.70
2023-05-10T02:07:48.629Z,5.07
2023-05-10T02:11:51.672Z,4.50
2023-05-10T02:15:55.425Z,3.60
2023-05-10T02:19:58.600Z,3.53
2023-05-10T02:24:04.990Z,2.60
2023-05-10T02:28:08.887Z,2.37
2023-05-10T02:32:12.509Z,2.40
2023-05-10T02:36:16.382Z,1.60
2023-05-10T02:40:22.138Z,1.63
2023-05-10T02:44:25.785Z,1.63
2023-05-10T02:48:28.494Z,1.13
2023-05-10T02:52:32.958Z,0.90
2023-05-10T02:56:40.467Z,0.57
2023-05-10T03:00:43.470Z,0.60
2023-05-10T03:04:46.508Z,0.60
2023-05-10T03:08:49.306Z,0.47
2023-05-10T03:13:05.684Z,0.40
2023-05-10T03:17:12.944Z,0.50
2023-05-10T03:21:16.358Z,0.50
2023-05-10T03:25:20.546Z,0.63
2023-05-10T03:29:25.020Z,0.50
2023-05-10T03:33:27.769Z,0.57
2023-05-10T03:37:33.273Z,0.70
2023-05-10T03:41:35.970Z,0.50
2023-05-10T03:45:40.748Z,0.50
2023-05-10T03:49:44.006Z,0.57
2023-05-10T03:53:47.419Z,0.50
2023-05-10T03:57:50.501Z,0.60
2023-05-10T04:01:54.998Z,0.50
2023-05-10T04:06:01.644Z,0.43
2023-05-10T04:10:04.671Z,0.50
2023-05-10T04:14:10.370Z,0.50
2023-05-10T04:18:14.415Z,0.50
2023-05-10T04:22:17.218Z,0.53
2023-05-10T04:26:20.027Z,0.50
2023-05-10T04:30:22.969Z,0.50
2023-05-10T04:34:27.062Z,0.70
2023-05-10T04:38:31.485Z,0.70
2023-05-10T04:42:34.471Z,0.70
2023-05-10T04:46:37.316Z,0.50
2023-05-10T04:50:41.513Z,0.80
2023-05-10T04:54:44.198Z,0.70
2023-05-10T04:58:47.180Z,0.60
2023-05-10T05:02:50.142Z,0.70
2023-05-10T05:06:54.566Z,0.60
2023-05-10T05:10:57.345Z,0.80
2023-05-10T05:15:00.169Z,0.80
2023-05-10T05:19:03.094Z,0.77
2023-05-10T05:23:07.522Z,0.70
2023-05-10T05:27:10.186Z,0.63
2023-05-10T05:31:13.169Z,0.60
2023-05-10T05:35:16.296Z,0.70
2023-05-10T05:39:21.307Z,0.90
2023-05-10T05:43:24.198Z,0.80
2023-05-10T05:47:29.735Z,1.00
2023-05-10T05:51:33.271Z,0.83
2023-05-10T05:55:37.770Z,0.90
2023-05-10T05:59:42.869Z,1.00
2023-05-10T06:03:45.711Z,0.90
2023-05-10T06:07:48.535Z,0.87
2023-05-10T06:11:52.629Z,1.10
2023-05-10T06:15:55.538Z,0.90
2023-05-10T06:19:59.878Z,0.73
2023-05-10T06:24:03.690Z,0.83
2023-05-10T06:28:07.953Z,1.00
2023-05-10T06:32:10.645Z,0.90
2023-05-10T06:36:14.244Z,1.00
2023-05-10T06:40:17.340Z,0.70
2023-05-10T06:44:21.578Z,0.90
2023-05-10T06:48:24.326Z,0.90
2023-05-10T06:52:27.297Z,0.80
2023-05-10T06:56:30.154Z,1.00
2023-05-10T07:00:34.410Z,0.80
2023-05-10T07:04:37.155Z,0.80
2023-05-10T07:08:39.938Z,0.80
2023-05-10T07:12:42.699Z,0.90
2023-05-10T07:16:47.007Z,1.00
2023-05-10T07:20:50.030Z,0.90
2023-05-10T07:24:53.208Z,0.90
2023-05-10T07:28:55.924Z,0.80
2023-05-10T07:33:00.217Z,0.80
2023-05-10T07:37:03.366Z,0.83
2023-05-10T07:41:08.860Z,1.07
2023-05-10T07:45:11.949Z,0.90
2023-05-10T07:49:16.424Z,1.10
2023-05-10T07:53:20.232Z,1.33
2023-05-10T07:57:22.886Z,1.17
2023-05-10T08:01:26.087Z,1.10
2023-05-10T08:05:30.672Z,1.20
2023-05-10T08:09:33.605Z,1.10
2023-05-10T08:13:36.379Z,1.00
2023-05-10T08:17:39.270Z,1.10
2023-05-10T08:21:43.437Z,0.93
2023-05-10T08:25:46.234Z,1.30
2023-05-10T08:29:50.622Z,1.07
2023-05-10T08:33:53.705Z,1.10
2023-05-10T08:37:58.092Z,1.40
2023-05-10T08:42:05.338Z,1.33
2023-05-10T08:46:09.310Z,1.40
2023-05-10T08:50:12.662Z,1.30
2023-05-10T08:54:17.144Z,1.40
2023-05-10T08:58:20.579Z,1.50
2023-05-10T09:02:23.435Z,2.10
2023-05-10T09:06:26.613Z,1.30
2023-05-10T09:10:32.082Z,1.30
2023-05-10T09:14:37.310Z,1.10
2023-05-10T09:18:40.058Z,1.17
2023-05-10T09:22:42.854Z,1.00
2023-05-10T09:26:50.620Z,0.97
2023-05-10T09:30:56.478Z,1.47
2023-05-10T09:34:59.465Z,1.33
2023-05-10T09:39:02.437Z,1.17
2023-05-10T09:43:09.004Z,1.00
2023-05-10T09:47:11.740Z,0.90
2023-05-10T09:51:21.647Z,0.97
2023-05-10T09:55:26.334Z,0.90
2023-05-10T09:59:31.527Z,1.10
2023-05-10T10:03:34.350Z,0.95
2023-05-10T10:07:37.357Z,1.10
2023-05-10T10:11:42.383Z,1.00
2023-05-10T10:15:47.830Z,1.10
2023-05-10T10:19:50.672Z,1.20
2023-05-10T10:23:54.007Z,0.93
2023-05-10T10:28:06.459Z,1.50
2023-05-10T10:32:14.749Z,1.10
2023-05-10T10:36:18.079Z,1.90
2023-05-10T10:40:28.143Z,2.00
2023-05-10T10:44:40.265Z,2.00
2023-05-10T10:48:50.119Z,1.80
2023-05-10T10:52:53.062Z,1.50
2023-05-10T10:57:14.024Z,1.30
2023-05-10T11:01:17.552Z,1.27
2023-05-10T11:05:48.914Z,1.50
2023-05-10T11:09:51.657Z,1.30
2023-05-10T11:13:54.525Z,1.60
2023-05-10T11:17:57.231Z,1.30
2023-05-10T11:22:16.608Z,1.20
2023-05-10T11:26:20.396Z,1.20
2023-05-10T11:30:23.145Z,0.90
2023-05-10T11:34:26.888Z,1.03
2023-05-10T11:38:30.845Z,1.00
2023-05-10T11:42:34.541Z,1.10
2023-05-10T11:46:38.583Z,0.80
2023-05-10T11:50:41.697Z,1.20
2023-05-10T11:54:53.220Z,1.13
2023-05-10T11:58:57.562Z,1.10
2023-05-10T12:03:00.713Z,1.10
2023-05-10T12:07:03.674Z,0.90
2023-05-10T12:11:09.216Z,1.00
2023-05-10T12:15:20.117Z,1.00
2023-05-10T12:19:23.161Z,0.90
2023-05-10T12:23:25.909Z,0.90
2023-05-10T12:27:36.738Z,0.80
2023-05-10T12:31:51.461Z,1.10
2023-05-10T12:35:55.939Z,1.03
2023-05-10T12:39:59.923Z,1.10
2023-05-10T12:44:04.147Z,1.10
2023-05-10T12:48:07.155Z,1.10
2023-05-10T12:52:09.829Z,0.90
2023-05-10T12:56:12.687Z,0.70
2023-05-10T13:00:18.141Z,1.00
2023-05-10T13:04:21.411Z,0.90
2023-05-10T13:08:24.697Z,0.70
2023-05-10T13:12:27.489Z,1.20
2023-05-10T13:16:31.722Z,0.93
2023-05-10T13:20:34.630Z,0.80
2023-05-10T13:24:37.395Z,0.90
2023-05-10T13:28:40.635Z,1.13
2023-05-10T13:32:44.994Z,1.00
2023-05-10T13:36:48.105Z,1.10
2023-05-10T13:40:53.559Z,1.20
2023-05-10T13:44:56.659Z,0.90
2023-05-10T13:49:00.853Z,1.17
2023-05-10T13:53:03.549Z,1.10
2023-05-10T13:57:06.552Z,0.93
2023-05-10T14:01:09.531Z,0.70
2023-05-10T14:05:14.138Z,0.70
2023-05-10T14:09:17.076Z,0.83
2023-05-10T14:13:19.797Z,0.60
2023-05-10T14:17:24.033Z,0.50
2023-05-10T14:21:29.863Z,0.70
2023-05-10T14:25:32.709Z,0.67
2023-05-10T14:29:36.544Z,0.80
2023-05-10T14:33:39.250Z,1.10
2023-05-10T14:37:43.915Z,0.97
2023-05-10T14:41:48.153Z,0.87
2023-05-10T14:45:50.905Z,0.60
2023-05-10T14:49:53.716Z,0.60
2023-05-10T14:53:57.947Z,0.60
2023-05-10T14:58:00.941Z,0.50
2023-05-10T15:02:04.138Z,1.13
2023-05-10T15:06:08.015Z,0.60
2023-05-10T15:10:13.212Z,0.80
2023-05-10T15:14:15.953Z,0.80
2023-05-10T15:18:19.101Z,2.00
2023-05-10T15:22:22.404Z,1.33
2023-05-10T15:26:27.218Z,1.20
2023-05-10T15:30:30.240Z,1.10
2023-05-10T15:34:35.024Z,1.00
2023-05-10T15:38:39.563Z,1.00
2023-05-10T15:42:43.947Z,1.33
2023-05-10T15:46:48.388Z,1.00
2023-05-10T15:50:51.222Z,1.10
2023-05-10T15:54:56.221Z,1.27
2023-05-10T15:59:00.635Z,1.20
2023-05-10T16:03:03.840Z,1.20
2023-05-10T16:07:06.806Z,1.20
2023-05-10T16:11:09.659Z,1.20
2023-05-10T16:15:13.864Z,1.13
2023-05-10T16:19:16.887Z,1.40
2023-05-10T16:23:19.636Z,1.40
2023-05-10T16:27:22.518Z,1.60
2023-05-10T16:31:26.935Z,1.40
2023-05-10T16:35:31.466Z,1.43
2023-05-10T16:39:34.248Z,1.60
2023-05-10T16:43:36.940Z,1.60
2023-05-10T16:47:41.974Z,1.83
2023-05-10T16:51:45.272Z,1.80
2023-05-10T16:55:48.143Z,1.57
2023-05-10T16:59:53.735Z,1.50
2023-05-10T17:03:58.046Z,1.40
2023-05-10T17:08:01.005Z,1.57
2023-05-10T17:12:04.268Z,1.20
2023-05-10T17:16:10.759Z,1.42
2023-05-10T17:20:15.230Z,1.23
2023-05-10T17:24:18.508Z,1.40
2023-05-10T17:28:21.279Z,1.20
2023-05-10T17:32:24.152Z,1.30
2023-05-10T17:36:28.591Z,1.20
2023-05-10T17:40:32.119Z,1.70
2023-05-10T17:44:35.247Z,1.20
2023-05-10T17:48:38.204Z,1.60
2023-05-10T17:52:42.435Z,1.30
2023-05-10T17:56:47.328Z,1.60
2023-05-10T18:00:50.136Z,1.50
2023-05-10T18:04:55.176Z,1.53
2023-05-10T18:09:00.238Z,1.67
2023-05-10T18:13:06.899Z,1.40
2023-05-10T18:17:11.148Z,1.30
2023-05-10T18:21:14.452Z,1.50
2023-05-10T18:25:19.572Z,1.50
2023-05-10T18:29:23.968Z,1.20
2023-05-10T18:33:26.714Z,1.50
2023-05-10T18:37:29.512Z,1.50
2023-05-10T18:41:33.940Z,1.60
2023-05-10T18:45:36.998Z,1.70
2023-05-10T18:49:39.939Z,1.60
2023-05-10T18:53:42.850Z,1.70
2023-05-10T18:57:47.104Z,1.50
2023-05-10T19:01:51.285Z,1.60
2023-05-10T19:05:54.181Z,1.43
2023-05-10T19:09:57.001Z,1.70
2023-05-10T19:14:01.110Z,1.57
2023-05-10T19:18:05.071Z,1.83
2023-05-10T19:22:08.327Z,1.67
2023-05-10T19:26:12.367Z,2.00
2023-05-10T19:30:16.685Z,2.27
2023-05-10T19:34:19.827Z,1.90
2023-05-10T19:38:22.795Z,1.73
2023-05-10T19:42:25.587Z,1.83
2023-05-10T19:46:29.881Z,1.60
2023-05-10T19:50:32.943Z,2.40
2023-05-10T19:54:35.871Z,2.23
2023-05-10T19:58:38.710Z,2.37
2023-05-10T20:02:43.121Z,3.47
2023-05-10T20:06:45.814Z,3.37
2023-05-10T20:10:48.536Z,3.50
2023-05-10T20:14:51.267Z,3.70
2023-05-10T20:18:55.508Z,2.90
2023-05-10T20:22:58.264Z,2.63
2023-05-10T20:27:00.932Z,2.40
2023-05-10T20:31:03.780Z,2.50
2023-05-10T20:35:09.003Z,2.27
2023-05-10T20:39:11.770Z,2.30
2023-05-10T20:43:14.482Z,2.67
2023-05-10T20:47:18.159Z,2.30
2023-05-10T20:51:25.101Z,2.40
2023-05-10T20:55:28.895Z,2.33
2023-05-10T20:59:31.666Z,2.40
2023-05-10T21:03:34.357Z,2.40
2023-05-10T21:07:39.339Z,1.70
2023-05-10T21:11:42.128Z,2.40
2023-05-10T21:15:47.450Z,1.80
2023-05-10T21:19:52.499Z,1.73
2023-05-10T21:23:56.866Z,1.67
2023-05-10T21:27:59.523Z,1.73
2023-05-10T21:32:02.506Z,1.60
2023-05-10T21:36:06.162Z,1.37
2023-05-10T21:40:11.752Z,1.60
2023-05-10T21:44:14.449Z,2.07
2023-05-10T21:48:17.284Z,1.70
2023-05-10T21:52:22.103Z,1.90
2023-05-10T21:56:26.318Z,1.60
2023-05-10T22:00:29.251Z,1.67
2023-05-10T22:04:32.842Z,1.70
2023-05-10T22:08:36.366Z,2.10
2023-05-10T22:12:40.446Z,2.10
2023-05-10T22:16:43.257Z,1.70
2023-05-10T22:20:46.446Z,1.83
2023-05-10T22:24:49.139Z,1.53
2023-05-10T22:28:53.444Z,1.85
2023-05-10T22:32:56.213Z,2.00
2023-05-10T22:36:59.502Z,2.07
2023-05-10T22:41:05.306Z,1.77
2023-05-10T22:45:11.825Z,1.83
2023-05-10T22:49:16.983Z,1.70
2023-05-10T22:53:19.698Z,1.80
2023-05-10T22:57:22.429Z,1.93
2023-05-10T23:01:26.511Z,2.10
2023-05-10T23:05:29.454Z,1.90
2023-05-10T23:09:32.121Z,1.87
2023-05-10T23:13:34.742Z,2.17
2023-05-10T23:17:38.866Z,1.70
2023-05-10T23:21:41.682Z,2.00
2023-05-10T23:25:44.273Z,1.73
2023-05-10T23:29:47.315Z,1.67
2023-05-10T23:33:51.355Z,1.90
2023-05-10T23:37:53.994Z,2.00
2023-05-10T23:41:56.725Z,1.63
2023-05-10T23:45:59.730Z,1.80
2023-05-10T23:50:05.195Z,2.33
2023-05-10T23:54:09.089Z,2.17
2023-05-10T23:58:14.421Z,1.97
